KRKR/RKR METAR and TAF weather

Enter ICAO airport designator
Station Type Date Time Source
KRKR METAR 2019/04/24 16:15 UTC NOAA

KRKR 241615Z AUTO 00000KT 10SM SCT005 OVC048 17/17 A2993 RMK AO2


Station Type Date Time Source
KRKR Decoded METAR 2019/04/24 16:15 UTC NOAA

Poteau, Robert S Kerr Airport, OK, United States (KRKR) 35-01-18N 094-37-17W
Apr 24, 2019 - 12:15 PM EDT / 2019.04.24 1615 UTC
Wind: Calm:0
Visibility: 10 mile(s):0
Sky conditions: overcast
Temperature: 62 F (17 C)
Dew Point: 62 F (17 C)
Relative Humidity: 100%
Pressure (altimeter): 29.93 in. Hg (1013 hPa)
ob: KRKR 241615Z AUTO 00000KT 10SM SCT005 OVC048 17/17 A2993 RMK AO2
cycle: 16

Station Type Date Time Source
KRKR TAF UTC NOAA

Error!

Example: see airport list